11PA weather

Worcester Heliport
Worcester, Pennsylvania, United States

Public forecast

Using degrees Fahrenheit for public forecast. Weather courtesy of forecast.io.

METAR (pilot weather report)

Closest report is Wings Field, 4.0 nm (7.4 km) SE. Retrieved 2019/07/17 13:35 UTC (5 minutes ago):

KLOM 171335Z AUTO 21006KT 10SM CLR 29/25 A3000 RMK AO2 T02890247

TAF (pilot weather forecast)

Closest forecast is Northeast Philadelphia Airport, 15.4 nm (28.5 km) ESE. Retrieved 2019/07/17 12:22 UTC (1 hour ago):

TAF KPNE 171120Z 1712/1812 VRB03KT P6SM FEW150 FM171400 25007KT P6SM FEW060 SCT250 FM171900 24008KT P6SM FEW060 BKN150 TEMPO 1719/1723 3SM TSRA BR BKN060CB FM172300 23007KT 4SM SHRA BR VCTS BKN060CB BKN150 PROB30 1723/1804 3SM TSRA BKN015CB FM180400 VRB03KT 6SM BR OVC015